PWSweather.com
Personal Weather Stations
Station Observations
KFLLAKEM30
Fairway Hills Timacuan (not Fully Operational Yet), Lake Mary, FL 32746

Fairway Hills Timacuan (not Fully Operational Yet)Lake Mary, FL 32746

Lat: 28.7686981, Lon: -81.33482750000002

Elevation: 79

Station Type: Netatmo

https://www.wunderground.com/personal-weather-station/dashboard?ID=KFLLAKEM30

Latest ConditionsUpdated 9:10:00 AM EDT Friday, Apr 19, 2019
Currently Today's Max Today's Min Today's Average
Temperature 78.4°F25.8°C 78.4°F25.8°C 73.4°F23.0°C 74.7°F23.7°C
Dew Point 71.4°F21.9°C 71.8°F22.1°C 69.6°F20.9°C 70.5°F21.4°C
Winds 1.3 mph SE2.1 kmh SE 1.3 mph -2.1 kmh - - 0.7 mph 1.1 kmh
Wind Gusts 3.1 mph5.0 kmh 4.3 mph6.9 kmh - -
Humidity 83% 91% 83% 89%
Pressure 29.73 in1006.8 mb 29.83 in1010.2 mb 29.73 in1006.8 mb -
Hour Temp Dew Point Humidity Winds Wind Gusts Pressure Precip Precip Rate Daily Precip Total
09:10 AM 78.4°F25.8°C 71.4°F21.9°C 83% 1.3 mph SE2.1 kmh SE 3.1 mph5.0 kmh 29.73 in1006.8 mb 0.00 in0.0 mm 0.00 in0.0 mm 0.00 in0.0 mm
09:00 AM 77.4°F25.2°C 71.8°F22.1°C 86% 0.7 mph S1.1 kmh S 2.5 mph4.0 kmh 29.73 in1006.8 mb 0.00 in0.0 mm 0.00 in0.0 mm 0.00 in0.0 mm
08:50 AM 77.0°F25.0°C 71.4°F21.9°C 86% 0.7 mph S1.1 kmh S 3.1 mph5.0 kmh 29.74 in1007.1 mb 0.00 in0.0 mm 0.00 in0.0 mm 0.00 in0.0 mm
08:40 AM 76.5°F24.7°C 71.2°F21.8°C 87% 0.7 mph S1.1 kmh S 2.5 mph4.0 kmh 29.74 in1007.1 mb 0.00 in0.0 mm 0.00 in0.0 mm 0.00 in0.0 mm
08:30 AM 76.1°F24.5°C 70.9°F21.6°C 87% 1.3 mph SE2.1 kmh SE 2.5 mph4.0 kmh 29.74 in1007.1 mb 0.00 in0.0 mm 0.00 in0.0 mm 0.00 in0.0 mm
08:20 AM 75.9°F24.4°C 71.2°F21.8°C 88% 1.3 mph S2.1 kmh S 4.3 mph6.9 kmh 29.74 in1007.1 mb 0.00 in0.0 mm 0.00 in0.0 mm 0.00 in0.0 mm
08:09 AM 75.7°F24.3°C 71.1°F21.7°C 88% 0.7 mph S1.1 kmh S 1.8 mph2.9 kmh 29.74 in1007.1 mb 0.00 in0.0 mm 0.00 in0.0 mm 0.00 in0.0 mm
07:59 AM 75.6°F24.2°C 70.9°F21.6°C 88% 0.7 mph SSW1.1 kmh SSW 2.5 mph4.0 kmh 29.74 in1007.1 mb 0.00 in0.0 mm 0.00 in0.0 mm 0.00 in0.0 mm
07:49 AM 75.4°F24.1°C 71.1°F21.7°C 89% 0.7 mph SSE1.1 kmh SSE 2.5 mph4.0 kmh 29.74 in1007.1 mb 0.00 in0.0 mm 0.00 in0.0 mm 0.00 in0.0 mm
07:39 AM 75.2°F24.0°C 70.9°F21.6°C 89% 0.7 mph S1.1 kmh S 3.1 mph5.0 kmh 29.75 in1007.5 mb 0.00 in0.0 mm 0.00 in0.0 mm 0.00 in0.0 mm
07:29 AM 75.0°F23.9°C 70.7°F21.5°C 89% 0.7 mph SE1.1 kmh SE 2.5 mph4.0 kmh 29.75 in1007.5 mb 0.00 in0.0 mm 0.00 in0.0 mm 0.00 in0.0 mm
07:19 AM 75.0°F23.9°C 70.7°F21.5°C 89% 0.7 mph SE1.1 kmh SE 2.5 mph4.0 kmh 29.75 in1007.5 mb 0.00 in0.0 mm 0.00 in0.0 mm 0.00 in0.0 mm
07:09 AM 74.8°F23.8°C 70.5°F21.4°C 89% 0.7 mph S1.1 kmh S 1.8 mph2.9 kmh 29.74 in1007.1 mb 0.00 in0.0 mm 0.00 in0.0 mm 0.00 in0.0 mm
06:58 AM 74.8°F23.8°C 70.5°F21.4°C 89% 0.7 mph SSE1.1 kmh SSE 2.5 mph4.0 kmh 29.74 in1007.1 mb 0.00 in0.0 mm 0.00 in0.0 mm 0.00 in0.0 mm
06:48 AM 74.7°F23.7°C 70.9°F21.6°C 90% 0.7 mph S1.1 kmh S 2.5 mph4.0 kmh 29.74 in1007.1 mb 0.00 in0.0 mm 0.00 in0.0 mm 0.00 in0.0 mm
06:39 AM 74.5°F23.6°C 70.7°F21.5°C 90% 0.7 mph SE1.1 kmh SE 2.5 mph4.0 kmh 29.74 in1007.1 mb 0.00 in0.0 mm 0.00 in0.0 mm 0.00 in0.0 mm
06:28 AM 74.3°F23.5°C 70.5°F21.4°C 90% 0.7 mph S1.1 kmh S 3.1 mph5.0 kmh 29.74 in1007.1 mb 0.00 in0.0 mm 0.00 in0.0 mm 0.00 in0.0 mm
06:18 AM 74.3°F23.5°C 70.5°F21.4°C 90% 0.7 mph SSE1.1 kmh SSE 1.8 mph2.9 kmh 29.74 in1007.1 mb 0.00 in0.0 mm 0.00 in0.0 mm 0.00 in0.0 mm
06:08 AM 74.1°F23.4°C 70.3°F21.3°C 90% 0.7 mph S1.1 kmh S 2.5 mph4.0 kmh 29.74 in1007.1 mb 0.00 in0.0 mm 0.00 in0.0 mm 0.00 in0.0 mm
05:58 AM 73.9°F23.3°C 70.2°F21.2°C 90% 0.7 mph SW1.1 kmh SW 1.8 mph2.9 kmh 29.74 in1007.1 mb 0.00 in0.0 mm 0.00 in0.0 mm 0.00 in0.0 mm
05:47 AM 73.8°F23.2°C 70.0°F21.1°C 90% 0.7 mph S1.1 kmh S 2.5 mph4.0 kmh 29.75 in1007.5 mb 0.00 in0.0 mm 0.00 in0.0 mm 0.00 in0.0 mm
05:38 AM 73.8°F23.2°C 70.0°F21.1°C 90% 0.7 mph S1.1 kmh S 2.5 mph4.0 kmh 29.75 in1007.5 mb 0.00 in0.0 mm 0.00 in0.0 mm 0.00 in0.0 mm
05:28 AM 73.6°F23.1°C 69.8°F21.0°C 90% 0.7 mph S1.1 kmh S 1.8 mph2.9 kmh 29.75 in1007.5 mb 0.00 in0.0 mm 0.00 in0.0 mm 0.00 in0.0 mm
05:18 AM 73.6°F23.1°C 69.8°F21.0°C 90% 0.7 mph S1.1 kmh S 1.8 mph2.9 kmh 29.75 in1007.5 mb 0.00 in0.0 mm 0.00 in0.0 mm 0.00 in0.0 mm
05:07 AM 73.6°F23.1°C 69.8°F21.0°C 90% 0.7 mph SE1.1 kmh SE 2.5 mph4.0 kmh 29.75 in1007.5 mb 0.00 in0.0 mm 0.00 in0.0 mm 0.00 in0.0 mm
04:57 AM 73.4°F23.0°C 69.6°F20.9°C 90% 0.7 mph SSE1.1 kmh SSE 1.8 mph2.9 kmh 29.75 in1007.5 mb 0.00 in0.0 mm 0.00 in0.0 mm 0.00 in0.0 mm
04:48 AM 73.4°F23.0°C 70.0°F21.1°C 91% 0.7 mph SSE1.1 kmh SSE 1.8 mph2.9 kmh 29.75 in1007.5 mb 0.00 in0.0 mm 0.00 in0.0 mm 0.00 in0.0 mm
04:37 AM 73.4°F23.0°C 70.0°F21.1°C 91% 0.7 mph S1.1 kmh S 1.8 mph2.9 kmh 29.75 in1007.5 mb 0.00 in0.0 mm 0.00 in0.0 mm 0.00 in0.0 mm
04:27 AM 73.4°F23.0°C 70.0°F21.1°C 91% 0.7 mph SW1.1 kmh SW 1.8 mph2.9 kmh 29.75 in1007.5 mb 0.00 in0.0 mm 0.00 in0.0 mm 0.00 in0.0 mm
04:17 AM 73.4°F23.0°C 70.0°F21.1°C 91% 0.7 mph S1.1 kmh S 2.5 mph4.0 kmh 29.75 in1007.5 mb 0.00 in0.0 mm 0.00 in0.0 mm 0.00 in0.0 mm
04:07 AM 73.4°F23.0°C 70.0°F21.1°C 91% 0.7 mph SW1.1 kmh SW 1.8 mph2.9 kmh 29.76 in1007.8 mb 0.00 in0.0 mm 0.00 in0.0 mm 0.00 in0.0 mm
03:56 AM 73.4°F23.0°C 70.0°F21.1°C 91% 0.7 mph S1.1 kmh S 1.8 mph2.9 kmh 29.76 in1007.8 mb 0.00 in0.0 mm 0.00 in0.0 mm 0.00 in0.0 mm
03:46 AM 73.4°F23.0°C 69.6°F20.9°C 90% 0.7 mph S1.1 kmh S 1.3 mph2.1 kmh 29.76 in1007.8 mb 0.00 in0.0 mm 0.00 in0.0 mm 0.00 in0.0 mm
03:37 AM 73.6°F23.1°C 69.8°F21.0°C 90% 0.7 mph S1.1 kmh S 1.3 mph2.1 kmh 29.76 in1007.8 mb 0.00 in0.0 mm 0.00 in0.0 mm 0.00 in0.0 mm
03:26 AM 73.6°F23.1°C 69.8°F21.0°C 90% 0.7 mph SSE1.1 kmh SSE 1.8 mph2.9 kmh 29.76 in1007.8 mb 0.00 in0.0 mm 0.00 in0.0 mm 0.00 in0.0 mm
03:16 AM 73.8°F23.2°C 70.0°F21.1°C 90% 0.7 mph SSE1.1 kmh SSE 1.8 mph2.9 kmh 29.77 in1008.1 mb 0.00 in0.0 mm 0.00 in0.0 mm 0.00 in0.0 mm
03:06 AM 73.8°F23.2°C 70.0°F21.1°C 90% 0.7 mph SSE1.1 kmh SSE 1.8 mph2.9 kmh 29.77 in1008.1 mb 0.00 in0.0 mm 0.00 in0.0 mm 0.00 in0.0 mm
02:56 AM 73.9°F23.3°C 69.6°F20.9°C 89% 0.7 mph W1.1 kmh W 1.8 mph2.9 kmh 29.77 in1008.1 mb 0.00 in0.0 mm 0.00 in0.0 mm 0.00 in0.0 mm
02:45 AM 74.1°F23.4°C 69.8°F21.0°C 89% 0.7 mph S1.1 kmh S 1.3 mph2.1 kmh 29.77 in1008.1 mb 0.00 in0.0 mm 0.00 in0.0 mm 0.00 in0.0 mm
02:36 AM 74.1°F23.4°C 69.8°F21.0°C 89% 0.7 mph SW1.1 kmh SW 1.3 mph2.1 kmh 29.78 in1008.5 mb 0.00 in0.0 mm 0.00 in0.0 mm 0.00 in0.0 mm
02:26 AM 74.3°F23.5°C 70.0°F21.1°C 89% 0.7 mph S1.1 kmh S 1.3 mph2.1 kmh 29.78 in1008.5 mb 0.00 in0.0 mm 0.00 in0.0 mm 0.00 in0.0 mm
02:16 AM 74.5°F23.6°C 70.2°F21.2°C 89% 0.7 mph SSE1.1 kmh SSE 1.8 mph2.9 kmh 29.79 in1008.8 mb 0.00 in0.0 mm 0.00 in0.0 mm 0.00 in0.0 mm
02:05 AM 74.7°F23.7°C 70.3°F21.3°C 89% 0.7 mph SE1.1 kmh SE 1.8 mph2.9 kmh 29.80 in1009.1 mb 0.00 in0.0 mm 0.00 in0.0 mm 0.00 in0.0 mm
01:55 AM 74.8°F23.8°C 70.5°F21.4°C 89% 0.7 mph SE1.1 kmh SE 1.8 mph2.9 kmh 29.80 in1009.1 mb 0.00 in0.0 mm 0.00 in0.0 mm 0.00 in0.0 mm
01:46 AM 74.8°F23.8°C 70.5°F21.4°C 89% 0.7 mph SSW1.1 kmh SSW 1.8 mph2.9 kmh 29.80 in1009.1 mb 0.00 in0.0 mm 0.00 in0.0 mm 0.00 in0.0 mm
01:35 AM 75.0°F23.9°C 70.7°F21.5°C 89% 0.7 mph SE1.1 kmh SE 1.8 mph2.9 kmh 29.81 in1009.5 mb 0.00 in0.0 mm 0.00 in0.0 mm 0.00 in0.0 mm
01:25 AM 75.0°F23.9°C 70.7°F21.5°C 89% 0.7 mph SSE1.1 kmh SSE 1.3 mph2.1 kmh 29.81 in1009.5 mb 0.00 in0.0 mm 0.00 in0.0 mm 0.00 in0.0 mm
01:15 AM 75.2°F24.0°C 70.9°F21.6°C 89% 0.7 mph SW1.1 kmh SW 1.3 mph2.1 kmh 29.81 in1009.5 mb 0.00 in0.0 mm 0.00 in0.0 mm 0.00 in0.0 mm
01:05 AM 75.2°F24.0°C 70.9°F21.6°C 89% 0.7 mph SSE1.1 kmh SSE 1.8 mph2.9 kmh 29.82 in1009.8 mb 0.00 in0.0 mm 0.00 in0.0 mm 0.00 in0.0 mm
12:54 AM 75.4°F24.1°C 71.1°F21.7°C 89% 0.7 mph S1.1 kmh S 1.8 mph2.9 kmh 29.82 in1009.8 mb 0.00 in0.0 mm 0.00 in0.0 mm 0.00 in0.0 mm
12:44 AM 75.4°F24.1°C 71.6°F22.0°C 90% 0.7 mph SW1.1 kmh SW 1.8 mph2.9 kmh 29.82 in1009.8 mb 0.00 in0.0 mm 0.00 in0.0 mm 0.00 in0.0 mm
12:35 AM 75.6°F24.2°C 71.8°F22.1°C 90% 0.7 mph SSW1.1 kmh SSW 1.8 mph2.9 kmh 29.83 in1010.2 mb 0.00 in0.0 mm 0.00 in0.0 mm 0.00 in0.0 mm
12:24 AM 75.6°F24.2°C 71.8°F22.1°C 90% 0.7 mph S1.1 kmh S 1.8 mph2.9 kmh 29.83 in1010.2 mb 0.00 in0.0 mm 0.00 in0.0 mm 0.00 in0.0 mm
12:14 AM 75.7°F24.3°C 71.8°F22.1°C 90% 0.7 mph SW1.1 kmh SW 1.3 mph2.1 kmh 29.83 in1010.2 mb 0.00 in0.0 mm 0.00 in0.0 mm 0.00 in0.0 mm
12:04 AM 75.7°F24.3°C 71.8°F22.1°C 90% 0.7 mph S1.1 kmh S 1.3 mph2.1 kmh 29.83 in1010.2 mb 0.00 in0.0 mm 0.00 in0.0 mm 0.00 in0.0 mm